x

Sentry Shoal (46131) Wave Buoy

9:00am - Sun 19th Feb 2017 All times are PST. -8 hours from GMT.

  • Sig Wave height 1.3ft
  • Peak Period 3s
  • Wind
    9mph
  • Sea Temp 46°f
  • Air Temp 41°f
  • Sea Pressure 995.6mb
  • Sentry Shoal
  • Sentry Shoal

More Historic Weather Station data

Upgrade to MSW Pro to gain access to the past 30 days of data for over 8000 Wavebouys and Weather Stations around the globe.

Join Pro

Comparision Forecast

View Surf forecast
   
Sun 02/19 9:00am 1.3ft 3s 9
mph
995.6mb 46f 41f
8:00am 1ft 2s 11 13 mph 995.4mb 45f 41f
7:00am 0.7ft 2s 7 11 mph 995.2mb 45f 41f
6:00am 0.7ft 2s 4
mph
994.8mb 45f 41f
5:00am 0.7ft 2s 2 4 mph 994.7mb 45f 42f
4:00am 1ft 3s 4
mph
994.8mb 45f 42f
3:00am 0.7ft 2s 2 4 mph 995.1mb 45f 41f
2:00am 0.7ft 2s 4 7 mph 995.4mb 45f 41f
1:00am 0.3ft 4s 9 11 mph 995.3mb 44f 42f
12:00am 0.3ft 4s  -  2 mph 995.7mb 44f 42f
Sat 02/18 11:00pm 0.3ft 2s 4 7 mph 995.9mb 44f 42f
10:00pm 0.3ft 2s 2 4 mph 995.9mb 44f 42f
9:00pm 0.3ft 4s 4
mph
995.8mb 44f 42f
8:00pm 0.3ft 4s 7
mph
995.5mb 44f 43f
7:00pm 0.3ft 4s 4 7 mph 995.5mb 44f 42f
6:00pm 0.3ft 4s 2
mph
995.5mb 44f 42f
5:00pm 0.3ft 4s 4
mph
995.6mb 44f 41f
4:00pm 0.3ft 4s 4
mph
995.6mb 45f 41f
3:00pm 0.3ft 4s 2 4 mph 995.9mb 45f 41f
2:00pm 0.3ft 4s 2 4 mph 995.9mb 46f 41f
1:00pm 0.3ft 2s  -  2 mph 996.3mb 45f 42f
12:00pm 0.3ft 2s  -  2 mph 996.8mb 45f 41f
11:00am 0.3ft 2s 2 4 mph 997.3mb 45f 41f
10:00am 0.7ft 3s 4 7 mph 997.6mb 44f 40f
9:00am 1ft 3s 11 13 mph 997.6mb 44f 40f
8:00am 1.3ft 3s 13 16 mph 997.9mb 44f 40f
7:00am 1.3ft 3s 13 16 mph 998.2mb 44f 40f
6:00am 1.3ft 3s 13 16 mph 998.9mb 44f 40f
5:00am 1.3ft 3s 16 18 mph 999.2mb 44f 40f
4:00am 1ft 3s 13 16 mph 999.6mb 45f 40f
3:00am 1.3ft 3s 13 16 mph 1000mb 45f 41f
2:00am 1ft 3s 13 16 mph 1000.5mb 45f 41f
1:00am 1ft 3s 13
mph
1001mb 45f 41f
12:00am 1ft 2s 13 16 mph 1001.3mb 46f 41f
Fri 02/17 11:00pm 1ft 2s 13 16 mph 1001.9mb 46f 42f
10:00pm 1ft 2s 13 16 mph 1002.5mb 46f 42f
9:00pm 0.7ft 2s 11 13 mph 1003mb 46f 44f
8:00pm 0.3ft 2s 9 13 mph 1003.6mb 46f 44f
7:00pm 0.3ft 4s 9
mph
1004.1mb 46f 45f
6:00pm 0.3ft 4s 7
mph
1004.1mb 46f 45f
5:00pm 0.3ft 4s 4
mph
1004.3mb 46f 45f
4:00pm 0.3ft 4s 4
mph
1004.8mb 46f 46f
3:00pm 0.3ft 4s 4 7 mph 1005.3mb 46f 45f
2:00pm 0.3ft 4s 4
mph
1005.8mb 46f 44f
1:00pm 0.3ft 3s 4
mph
1006.4mb 46f 45f
12:00pm 0.3ft 3s 4 7 mph 1007mb 46f 44f
11:00am 0.3ft 3s 4
mph
1007.3mb 46f 44f
10:00am 0.3ft 3s 7 9 mph 1007.2mb 46f 43f
9:00am 0.7ft 3s 7 9 mph 1007.2mb 45f 43f
8:00am 0.7ft 3s 7
mph
1007mb 45f 42f
7:00am 0.7ft 3s 4
mph
1006.6mb 45f 44f
6:00am 0.7ft 3s 9 11 mph 1006.4mb 46f 43f
5:00am 0.7ft 3s 4 7 mph 1006.2mb 46f 43f
4:00am 0.7ft 3s 9
mph
1005.9mb 46f 42f
3:00am 0.7ft 2s 7 9 mph 1005.8mb 46f 44f
2:00am 0.7ft 2s 4 7 mph 1005.2mb 45f 43f
1:00am 0.3ft 2s 2
mph
1004.9mb 46f 44f
12:00am 0.7ft 2s 4 7 mph 1004.2mb 46f 44f
Thu 02/16 11:00pm 0.7ft 2s 4 7 mph 1003.5mb 45f 44f
10:00pm 0.7ft 2s 2
mph
1002.6mb 46f 46f
9:00pm 1ft 3s 4
mph
1002mb 46f 46f
8:00pm 1ft 4s 4 7 mph 1001.2mb 46f 46f
7:00pm 1.3ft 3s 4
mph
1000.2mb 46f 47f
6:00pm 0.7ft 3s 9 11 mph 999.1mb 46f 47f
5:00pm 0.7ft 3s 4
mph
999.2mb 46f 47f
4:00pm 1ft 3s  -  2 mph 998.7mb 46f 49f
3:00pm 1.3ft 4s 4
mph
997.7mb 46f 47f
2:00pm 1.6ft 4s 4
mph
996.9mb 46f 47f
1:00pm 2ft 4s 9
mph
996mb 46f 48f
12:00pm 2.5ft 4s 7 9 mph 995.4mb 46f 47f
11:00am 3ft 4s 13 16 mph 994.3mb 46f 47f
10:00am 2.5ft 4s 11 16 mph 993.5mb 46f 47f
9:00am 3.5ft 5s 13 18 mph 992.5mb 46f 47f
8:00am 4ft 5s 22 27 mph 990.9mb 46f 48f
7:00am 4ft 4s 22 31 mph 989.6mb 46f 49f
6:00am 4.5ft 4s 25 31 mph 988.5mb 46f 49f
5:00am 3.5ft 5s 25 31 mph 987.5mb 46f 49f
4:00am 4.5ft 5s 18 20 mph 987.4mb 47f 49f
3:00am 6ft 6s 25 31 mph 986.8mb 47f 50f
2:00am 7ft 6s 29 36 mph 985.7mb 47f 50f
1:00am 7ft 6s 36 40 mph 984.1mb 47f 51f
12:00am  -   -  34
mph
- - 51f
Wed 02/15 11:00pm 7.5ft 6s 31 40 mph 986mb 46f 51f
10:00pm 8ft 6s 31 40 mph 986.3mb 46f 51f
9:00pm 8ft 6s 36 43 mph 986.8mb 46f 51f
8:00pm 7ft 6s 36 45 mph 986.6mb 45f 51f
7:00pm 5ft 5s 31 40 mph 987.7mb 45f 51f